METAR Data
IDs: Format: Raw Decoded Include TAF

Data at: 0240 UTC 25 Jan 2020

METAR for:KCIN (Carroll/Neu Arpt, IA, US)
Text:KCIN 250235Z AUTO 33015KT 10SM OVC015 M02/M03 A3000 RMK AO2
Temperature: -2.0°C ( 28°F)
Dewpoint: -3.0°C ( 27°F) [RH = 93%]
Pressure (altimeter):30.00 inches Hg (1016.0 mb)
Winds:from the NNW (330 degrees) at 17 MPH (15 knots; 7.7 m/s)
Visibility:10 or more sm (16+ km)
Ceiling:1500 feet AGL
Clouds: overcast cloud deck at 1500 feet AGL
QC Flag:automated observation with no human augmentation